createdAt,value
2022-07-31T00:00:26.798Z,21.17
2022-07-31T00:02:54.172Z,21.70
2022-07-31T00:05:21.249Z,21.58
2022-07-31T00:07:48.271Z,21.67
2022-07-31T00:10:15.483Z,21.15
2022-07-31T00:12:42.723Z,21.90
2022-07-31T00:15:10.578Z,22.08
2022-07-31T00:17:41.549Z,21.42
2022-07-31T00:20:13.480Z,21.45
2022-07-31T00:22:44.867Z,21.60
2022-07-31T00:25:13.146Z,22.02
2022-07-31T00:27:41.652Z,21.08
2022-07-31T00:30:09.583Z,21.65
2022-07-31T00:32:36.587Z,21.55
2022-07-31T00:35:04.145Z,20.92
2022-07-31T00:37:31.310Z,22.02
2022-07-31T00:39:58.643Z,21.73
2022-07-31T00:42:26.562Z,22.10
2022-07-31T00:44:53.747Z,22.17
2022-07-31T00:47:22.293Z,22.92
2022-07-31T00:49:51.431Z,22.95
2022-07-31T00:52:18.471Z,22.65
2022-07-31T00:54:45.539Z,23.50
2022-07-31T00:57:12.571Z,22.35
2022-07-31T00:59:39.576Z,22.83
2022-07-31T01:02:08.412Z,23.13
2022-07-31T01:04:35.554Z,23.35
2022-07-31T01:07:03.168Z,23.42
2022-07-31T01:09:30.652Z,23.05
2022-07-31T01:12:22.298Z,23.88
2022-07-31T01:14:54.251Z,22.08
2022-07-31T01:17:26.775Z,23.42
2022-07-31T01:19:55.036Z,23.30
2022-07-31T01:22:46.379Z,23.65
2022-07-31T01:25:28.975Z,24.77
2022-07-31T01:28:43.726Z,24.50
2022-07-31T01:31:26.867Z,23.83
2022-07-31T01:34:04.079Z,24.00
2022-07-31T01:36:35.177Z,24.05
2022-07-31T01:39:03.866Z,24.52
2022-07-31T01:41:36.635Z,24.77
2022-07-31T01:44:05.796Z,23.70
2022-07-31T01:46:41.418Z,25.17
2022-07-31T01:49:10.084Z,24.40
2022-07-31T01:51:39.520Z,23.85
2022-07-31T01:54:07.462Z,24.50
2022-07-31T01:56:35.808Z,25.15
2022-07-31T01:59:03.055Z,23.80
2022-07-31T02:01:31.774Z,23.35
2022-07-31T02:04:01.277Z,25.45
2022-07-31T02:06:28.881Z,24.10
2022-07-31T02:08:57.049Z,24.35
2022-07-31T02:11:24.567Z,24.20
2022-07-31T02:13:53.516Z,24.02
2022-07-31T02:16:21.539Z,24.25
2022-07-31T02:18:51.229Z,25.17
2022-07-31T02:21:18.387Z,24.77
2022-07-31T02:23:45.463Z,23.95
2022-07-31T02:26:15.780Z,24.48
2022-07-31T02:28:45.059Z,25.45
2022-07-31T02:31:14.791Z,25.67
2022-07-31T02:33:44.548Z,24.65
2022-07-31T02:36:14.717Z,24.60
2022-07-31T02:38:44.379Z,25.60
2022-07-31T02:41:12.975Z,26.17
2022-07-31T02:43:40.422Z,25.40
2022-07-31T02:46:09.954Z,25.90
2022-07-31T02:48:37.716Z,25.67
2022-07-31T02:51:05.693Z,27.80
2022-07-31T02:53:34.187Z,30.05
2022-07-31T02:56:04.606Z,32.50
2022-07-31T02:58:31.883Z,32.15
2022-07-31T03:01:04.950Z,30.95
2022-07-31T03:03:32.639Z,30.73
2022-07-31T03:05:59.713Z,29.48
2022-07-31T03:08:28.114Z,29.48
2022-07-31T03:10:56.260Z,30.67
2022-07-31T03:13:25.325Z,32.22
2022-07-31T03:15:52.760Z,30.20
2022-07-31T03:18:21.846Z,30.27
2022-07-31T03:20:53.350Z,29.90
2022-07-31T03:23:22.927Z,30.20
2022-07-31T03:25:51.055Z,28.25
2022-07-31T03:28:19.761Z,27.55
2022-07-31T03:30:50.959Z,26.73
2022-07-31T03:33:22.327Z,25.58
2022-07-31T03:35:50.097Z,26.48
2022-07-31T03:38:38.722Z,27.85
2022-07-31T03:41:04.779Z,26.75
2022-07-31T03:43:46.827Z,27.38
2022-07-31T03:46:19.028Z,29.33
2022-07-31T03:48:46.843Z,28.75
2022-07-31T03:51:14.479Z,28.23
2022-07-31T03:53:42.667Z,28.70
2022-07-31T03:56:11.595Z,28.20
2022-07-31T03:58:38.921Z,30.63
2022-07-31T04:01:10.407Z,28.02
2022-07-31T04:03:39.475Z,28.10
2022-07-31T04:06:06.598Z,27.70
2022-07-31T04:08:34.425Z,27.08
2022-07-31T04:11:01.441Z,26.15
2022-07-31T04:13:28.642Z,26.55
2022-07-31T04:15:55.661Z,25.42
2022-07-31T04:18:22.678Z,24.65
2022-07-31T04:20:49.721Z,26.85
2022-07-31T04:23:17.015Z,24.95
2022-07-31T04:25:44.043Z,26.60
2022-07-31T04:28:11.285Z,25.42
2022-07-31T04:30:39.319Z,25.70
2022-07-31T04:33:06.468Z,25.20
2022-07-31T04:35:33.657Z,24.23
2022-07-31T04:38:00.937Z,24.65
2022-07-31T04:40:28.013Z,25.38
2022-07-31T04:42:55.590Z,23.95
2022-07-31T04:45:22.776Z,23.58
2022-07-31T04:47:49.804Z,23.40
2022-07-31T04:50:16.902Z,23.83
2022-07-31T04:52:43.902Z,23.27
2022-07-31T04:55:10.928Z,22.52
2022-07-31T04:57:38.341Z,21.73
2022-07-31T05:00:07.124Z,22.15
2022-07-31T05:02:34.150Z,21.25
2022-07-31T05:05:01.239Z,21.38
2022-07-31T05:07:28.748Z,21.65
2022-07-31T05:09:56.951Z,21.60
2022-07-31T05:12:23.941Z,20.95
2022-07-31T05:14:50.970Z,22.15
2022-07-31T05:17:18.011Z,20.88
2022-07-31T05:19:45.251Z,20.77
2022-07-31T05:22:12.539Z,21.55
2022-07-31T05:24:40.615Z,21.48
2022-07-31T05:27:07.654Z,22.13
2022-07-31T05:29:34.862Z,20.65
2022-07-31T05:32:02.226Z,22.25
2022-07-31T05:34:30.619Z,21.27
2022-07-31T05:37:02.064Z,21.30
2022-07-31T05:39:30.003Z,21.50
2022-07-31T05:41:57.410Z,21.08
2022-07-31T05:44:24.882Z,21.08
2022-07-31T05:49:18.359Z,20.30
2022-07-31T05:51:46.903Z,20.27
2022-07-31T05:54:14.693Z,20.80
2022-07-31T05:56:41.737Z,20.70
2022-07-31T05:59:09.958Z,24.83
2022-07-31T06:01:37.444Z,25.33
2022-07-31T06:04:04.564Z,20.50
2022-07-31T06:06:31.579Z,20.67
2022-07-31T06:09:04.151Z,20.00
2022-07-31T06:11:32.388Z,20.63
2022-07-31T06:13:59.601Z,20.30
2022-07-31T06:16:26.711Z,20.55
2022-07-31T06:18:53.722Z,20.73
2022-07-31T06:23:46.628Z,20.98
2022-07-31T06:26:13.660Z,20.48
2022-07-31T06:28:48.614Z,19.75
2022-07-31T06:31:21.306Z,20.05
2022-07-31T06:33:49.619Z,19.40
2022-07-31T06:36:17.995Z,19.70
2022-07-31T06:38:46.141Z,19.33
2022-07-31T06:41:36.354Z,18.90
2022-07-31T06:44:05.075Z,18.58
2022-07-31T06:46:32.039Z,18.70
2022-07-31T06:49:29.415Z,17.80
2022-07-31T06:51:56.487Z,18.23
2022-07-31T06:54:26.912Z,18.50
2022-07-31T06:56:54.511Z,18.38
2022-07-31T06:59:39.221Z,18.77
2022-07-31T07:02:08.404Z,17.38
2022-07-31T07:05:05.301Z,18.30
2022-07-31T07:07:22.965Z,18.15
2022-07-31T07:09:49.992Z,18.30
2022-07-31T07:12:17.146Z,17.95
2022-07-31T07:14:44.788Z,18.02
2022-07-31T07:17:11.871Z,18.05
2022-07-31T07:19:42.092Z,17.73
2022-07-31T07:22:09.101Z,18.20
2022-07-31T07:24:36.073Z,18.52
2022-07-31T07:27:03.326Z,17.92
2022-07-31T07:29:30.879Z,17.98
2022-07-31T07:32:00.029Z,18.00
2022-07-31T07:34:27.666Z,17.45
2022-07-31T07:36:55.334Z,18.08
2022-07-31T07:39:23.181Z,18.05
2022-07-31T07:41:50.275Z,17.90
2022-07-31T07:44:17.359Z,17.58
2022-07-31T07:46:44.499Z,17.48
2022-07-31T07:49:12.006Z,17.08
2022-07-31T07:51:58.333Z,17.58
2022-07-31T07:54:26.218Z,17.38
2022-07-31T07:56:55.003Z,17.25
2022-07-31T07:59:22.256Z,17.30
2022-07-31T08:01:49.247Z,17.13
2022-07-31T08:04:16.682Z,17.38
2022-07-31T08:06:43.658Z,17.67
2022-07-31T08:09:10.744Z,17.77
2022-07-31T08:11:37.781Z,17.10
2022-07-31T08:14:04.791Z,17.02
2022-07-31T08:16:32.680Z,17.17
2022-07-31T08:19:00.253Z,17.20
2022-07-31T08:21:27.316Z,17.00
2022-07-31T08:23:54.325Z,17.45
2022-07-31T08:26:21.395Z,17.05
2022-07-31T08:28:51.106Z,16.85
2022-07-31T08:31:20.233Z,16.75
2022-07-31T08:33:47.802Z,17.13
2022-07-31T08:36:14.924Z,17.15
2022-07-31T08:38:41.979Z,16.67
2022-07-31T08:41:08.951Z,17.30
2022-07-31T08:44:02.189Z,17.25
2022-07-31T08:46:24.022Z,17.08
2022-07-31T08:48:54.383Z,17.15
2022-07-31T08:51:23.993Z,17.55
2022-07-31T08:53:55.393Z,17.58
2022-07-31T08:56:24.498Z,17.13
2022-07-31T08:58:51.893Z,17.23
2022-07-31T09:01:19.238Z,17.42
2022-07-31T09:03:46.701Z,17.30
2022-07-31T09:06:13.764Z,16.73
2022-07-31T09:08:41.220Z,16.80
2022-07-31T09:11:09.259Z,17.08
2022-07-31T09:13:36.577Z,16.90
2022-07-31T09:16:04.116Z,17.70
2022-07-31T09:18:31.662Z,17.30
2022-07-31T09:21:06.252Z,17.20
2022-07-31T09:23:33.440Z,17.40
2022-07-31T09:26:02.876Z,17.20
2022-07-31T09:28:38.168Z,17.05
2022-07-31T09:31:08.267Z,17.33
2022-07-31T09:33:41.310Z,17.83
2022-07-31T09:36:13.118Z,16.77
2022-07-31T09:38:42.682Z,17.15
2022-07-31T09:41:56.593Z,16.98
2022-07-31T09:44:11.168Z,16.55
2022-07-31T09:46:47.235Z,17.10
2022-07-31T09:49:15.402Z,17.02
2022-07-31T09:51:44.294Z,16.65
2022-07-31T09:54:27.988Z,16.77
2022-07-31T09:56:55.044Z,17.25
2022-07-31T09:59:22.338Z,16.67
2022-07-31T10:01:49.905Z,16.55
2022-07-31T10:04:18.441Z,16.45
2022-07-31T10:06:51.683Z,16.65
2022-07-31T10:09:20.342Z,16.30
2022-07-31T10:11:50.016Z,16.58
2022-07-31T10:14:31.628Z,16.98
2022-07-31T10:17:04.801Z,16.98
2022-07-31T10:19:46.506Z,16.60
2022-07-31T10:22:20.100Z,17.20
2022-07-31T10:24:50.784Z,17.17
2022-07-31T10:27:19.435Z,16.80
2022-07-31T10:29:47.360Z,16.58
2022-07-31T10:32:14.652Z,16.42
2022-07-31T10:34:41.977Z,16.95
2022-07-31T10:37:45.506Z,17.02
2022-07-31T10:40:33.219Z,16.58
2022-07-31T10:43:36.434Z,16.67
2022-07-31T10:46:03.486Z,16.63
2022-07-31T10:48:30.460Z,16.42
2022-07-31T10:51:09.725Z,16.00
2022-07-31T10:53:51.392Z,16.80
2022-07-31T10:56:23.193Z,16.48
2022-07-31T10:58:52.008Z,16.80
2022-07-31T11:01:19.741Z,16.65
2022-07-31T11:03:49.864Z,16.38
2022-07-31T11:06:18.068Z,16.63
2022-07-31T11:08:47.094Z,16.77
2022-07-31T11:11:15.346Z,17.05
2022-07-31T11:14:00.665Z,16.55
2022-07-31T11:16:29.188Z,17.08
2022-07-31T11:19:06.961Z,16.83
2022-07-31T11:21:39.278Z,16.67
2022-07-31T11:24:13.968Z,16.80
2022-07-31T11:26:54.455Z,16.13
2022-07-31T11:29:59.901Z,16.17
2022-07-31T11:32:24.842Z,17.25
2022-07-31T11:34:56.621Z,16.60
2022-07-31T11:37:46.403Z,16.88
2022-07-31T11:40:19.741Z,16.38
2022-07-31T11:43:00.015Z,16.33
2022-07-31T11:45:47.225Z,16.08
2022-07-31T11:48:19.067Z,16.27
2022-07-31T11:50:47.827Z,16.60
2022-07-31T11:53:15.651Z,16.27
2022-07-31T11:55:49.595Z,16.45
2022-07-31T11:58:18.035Z,16.52
2022-07-31T12:00:52.512Z,16.27
2022-07-31T12:03:25.014Z,16.38
2022-07-31T12:05:55.326Z,16.58
2022-07-31T12:08:25.823Z,16.40
2022-07-31T12:10:56.232Z,16.27
2022-07-31T12:13:25.205Z,16.67
2022-07-31T12:16:05.419Z,17.10
2022-07-31T12:18:48.056Z,16.83
2022-07-31T12:21:15.893Z,16.60
2022-07-31T12:23:53.492Z,16.83
2022-07-31T12:26:33.903Z,16.80
2022-07-31T12:29:08.483Z,17.23
2022-07-31T12:31:49.875Z,17.00
2022-07-31T12:34:35.254Z,16.67
2022-07-31T12:37:09.536Z,16.80
2022-07-31T12:39:59.253Z,16.88
2022-07-31T12:42:30.319Z,16.35
2022-07-31T12:45:17.946Z,16.38
2022-07-31T12:47:51.264Z,16.48
2022-07-31T12:50:21.833Z,16.25
2022-07-31T12:52:49.026Z,17.38
2022-07-31T12:55:17.290Z,17.05
2022-07-31T12:57:50.536Z,16.83
2022-07-31T13:00:20.325Z,17.42
2022-07-31T13:02:47.331Z,17.17
2022-07-31T13:05:16.937Z,17.70
2022-07-31T13:07:44.310Z,17.15
2022-07-31T13:10:19.759Z,16.88
2022-07-31T13:12:50.566Z,17.25
2022-07-31T13:15:30.458Z,17.45
2022-07-31T13:18:06.084Z,16.80
2022-07-31T13:20:33.184Z,16.48
2022-07-31T13:23:01.378Z,17.13
2022-07-31T13:25:30.379Z,16.77
2022-07-31T13:27:58.195Z,16.85
2022-07-31T13:30:25.368Z,16.73
2022-07-31T13:32:52.350Z,16.45
2022-07-31T13:35:27.931Z,16.65
2022-07-31T13:37:55.976Z,17.48
2022-07-31T13:40:43.051Z,16.88
2022-07-31T13:43:10.083Z,17.02
2022-07-31T13:45:37.409Z,16.95
2022-07-31T13:48:09.345Z,16.83
2022-07-31T13:50:38.171Z,16.92
2022-07-31T13:53:05.513Z,17.13
2022-07-31T13:55:32.615Z,17.33
2022-07-31T13:58:01.175Z,17.13
2022-07-31T14:00:29.979Z,17.50
2022-07-31T14:02:58.038Z,17.45
2022-07-31T14:05:26.673Z,17.13
2022-07-31T14:07:55.185Z,17.67
2022-07-31T14:10:22.750Z,17.58
2022-07-31T14:12:50.345Z,17.10
2022-07-31T14:15:18.523Z,17.23
2022-07-31T14:17:46.093Z,18.05
2022-07-31T14:20:13.984Z,17.27
2022-07-31T14:22:41.697Z,17.20
2022-07-31T14:25:10.205Z,16.73
2022-07-31T14:27:38.769Z,17.25
2022-07-31T14:30:09.718Z,16.88
2022-07-31T14:32:36.993Z,16.70
2022-07-31T14:35:07.990Z,16.83
2022-07-31T14:37:35.821Z,16.80
2022-07-31T14:40:04.081Z,17.02
2022-07-31T14:42:31.585Z,16.77
2022-07-31T14:45:03.294Z,17.25
2022-07-31T14:47:34.430Z,16.60
2022-07-31T14:50:08.977Z,16.90
2022-07-31T14:52:38.454Z,16.90
2022-07-31T14:55:06.406Z,16.77
2022-07-31T14:57:33.461Z,16.55
2022-07-31T15:00:00.754Z,16.35
2022-07-31T15:02:28.226Z,17.00
2022-07-31T15:04:55.280Z,16.65
2022-07-31T15:07:43.882Z,17.35
2022-07-31T15:10:11.167Z,16.65
2022-07-31T15:12:38.367Z,17.33
2022-07-31T15:15:06.660Z,16.70
2022-07-31T15:17:33.949Z,17.20
2022-07-31T15:20:00.943Z,16.67
2022-07-31T15:22:27.992Z,16.67
2022-07-31T15:24:55.187Z,16.98
2022-07-31T15:27:22.562Z,17.13
2022-07-31T15:30:03.885Z,17.25
2022-07-31T15:32:36.244Z,17.25
2022-07-31T15:35:04.845Z,17.60
2022-07-31T15:37:35.569Z,17.25
2022-07-31T15:40:04.492Z,17.05
2022-07-31T15:42:38.365Z,17.40
2022-07-31T15:45:07.687Z,17.60
2022-07-31T15:47:34.940Z,17.65
2022-07-31T15:50:02.031Z,17.00
2022-07-31T15:52:28.997Z,17.20
2022-07-31T15:54:56.028Z,16.92
2022-07-31T15:57:23.976Z,17.55
2022-07-31T15:59:54.358Z,17.00
2022-07-31T16:02:22.965Z,17.42
2022-07-31T16:04:52.857Z,17.10
2022-07-31T16:08:30.838Z,17.10
2022-07-31T16:10:16.269Z,16.58
2022-07-31T16:12:45.856Z,17.05
2022-07-31T16:15:13.488Z,17.70
2022-07-31T16:17:40.979Z,17.08
2022-07-31T16:20:26.322Z,16.75
2022-07-31T16:22:58.145Z,17.63
2022-07-31T16:25:27.073Z,17.63
2022-07-31T16:27:54.918Z,17.40
2022-07-31T16:30:22.778Z,17.85
2022-07-31T16:32:50.391Z,17.70
2022-07-31T16:35:17.547Z,17.20
2022-07-31T16:37:51.766Z,17.95
2022-07-31T16:40:28.609Z,17.77
2022-07-31T16:43:50.892Z,16.98
2022-07-31T16:45:52.526Z,17.13
2022-07-31T16:48:19.545Z,17.45
2022-07-31T16:50:53.129Z,17.50
2022-07-31T16:54:10.320Z,17.55
2022-07-31T16:56:13.839Z,17.52
2022-07-31T16:58:40.994Z,17.33
2022-07-31T17:01:53.213Z,17.75
2022-07-31T17:04:01.001Z,17.92
2022-07-31T17:06:37.510Z,16.95
2022-07-31T17:09:17.543Z,17.65
2022-07-31T17:11:47.315Z,17.52
2022-07-31T17:14:14.984Z,17.20
2022-07-31T17:16:46.757Z,17.50
2022-07-31T17:19:14.754Z,17.23
2022-07-31T17:21:44.354Z,16.23
2022-07-31T17:24:15.771Z,17.05
2022-07-31T17:26:44.145Z,16.90
2022-07-31T17:29:12.140Z,16.52
2022-07-31T17:31:39.322Z,16.48
2022-07-31T17:34:09.302Z,16.92
2022-07-31T17:36:36.859Z,16.80
2022-07-31T17:39:04.673Z,16.98
2022-07-31T17:41:32.132Z,16.42
2022-07-31T17:43:59.186Z,16.75
2022-07-31T17:46:34.374Z,16.65
2022-07-31T17:49:19.567Z,16.05
2022-07-31T17:51:57.699Z,17.30
2022-07-31T17:54:34.526Z,16.77
2022-07-31T17:57:01.824Z,16.58
2022-07-31T17:59:29.401Z,16.13
2022-07-31T18:02:02.005Z,16.75
2022-07-31T18:04:34.934Z,16.63
2022-07-31T18:07:04.508Z,15.95
2022-07-31T18:09:32.203Z,16.27
2022-07-31T18:11:59.303Z,16.00
2022-07-31T18:14:26.461Z,16.42
2022-07-31T18:16:54.265Z,15.90
2022-07-31T18:19:22.212Z,16.17
2022-07-31T18:21:50.171Z,16.30
2022-07-31T18:24:17.286Z,16.35
2022-07-31T18:26:44.314Z,16.52
2022-07-31T18:29:11.442Z,16.35
2022-07-31T18:31:38.670Z,16.35
2022-07-31T18:34:06.329Z,16.73
2022-07-31T18:36:34.202Z,16.00
2022-07-31T18:39:01.520Z,17.20
2022-07-31T18:41:29.863Z,16.33
2022-07-31T18:43:57.441Z,16.92
2022-07-31T18:46:25.043Z,16.73
2022-07-31T18:48:56.473Z,17.77
2022-07-31T18:51:25.393Z,16.48
2022-07-31T18:53:54.213Z,17.00
2022-07-31T18:56:21.517Z,17.17
2022-07-31T18:58:48.576Z,17.45
2022-07-31T19:01:15.639Z,17.17
2022-07-31T19:03:42.773Z,17.05
2022-07-31T19:06:10.004Z,17.60
2022-07-31T19:08:37.076Z,17.40
2022-07-31T19:11:04.298Z,17.02
2022-07-31T19:13:31.485Z,17.20
2022-07-31T19:15:58.637Z,17.48
2022-07-31T19:18:28.698Z,17.25
2022-07-31T19:21:19.019Z,16.63
2022-07-31T19:23:48.122Z,16.73
2022-07-31T19:26:15.259Z,16.95
2022-07-31T19:28:45.213Z,16.85
2022-07-31T19:31:13.488Z,16.92
2022-07-31T19:33:41.070Z,17.10
2022-07-31T19:36:08.454Z,17.85
2022-07-31T19:38:38.377Z,16.95
2022-07-31T19:41:05.526Z,16.95
2022-07-31T19:43:33.303Z,16.58
2022-07-31T19:46:00.730Z,16.88
2022-07-31T19:48:39.820Z,17.27
2022-07-31T19:51:07.198Z,16.95
2022-07-31T19:53:34.230Z,16.55
2022-07-31T19:56:05.641Z,17.23
2022-07-31T19:58:35.017Z,16.73
2022-07-31T20:01:03.360Z,16.58
2022-07-31T20:03:30.571Z,17.08
2022-07-31T20:05:57.981Z,17.52
2022-07-31T20:08:24.960Z,17.35
2022-07-31T20:10:51.996Z,17.02
2022-07-31T20:13:19.226Z,16.95
2022-07-31T20:15:51.298Z,17.23
2022-07-31T20:18:27.899Z,18.20
2022-07-31T20:21:04.424Z,17.33
2022-07-31T20:23:34.550Z,16.95
2022-07-31T20:26:01.741Z,17.35
2022-07-31T20:28:28.768Z,29.42
2022-07-31T20:30:55.951Z,17.70
2022-07-31T20:33:23.279Z,17.50
2022-07-31T20:35:50.755Z,17.40
2022-07-31T20:38:22.419Z,17.42
2022-07-31T20:40:54.283Z,17.17
2022-07-31T20:43:27.420Z,17.40
2022-07-31T20:45:59.055Z,17.30
2022-07-31T20:48:33.101Z,17.50
2022-07-31T20:51:01.952Z,18.02
2022-07-31T20:53:29.840Z,17.75
2022-07-31T20:55:57.115Z,17.33
2022-07-31T20:58:26.363Z,17.65
2022-07-31T21:00:54.615Z,17.48
2022-07-31T21:03:22.098Z,17.60
2022-07-31T21:05:49.985Z,17.20
2022-07-31T21:08:17.565Z,17.13
2022-07-31T21:10:44.860Z,17.85
2022-07-31T21:13:11.876Z,20.48
2022-07-31T21:15:42.218Z,16.88
2022-07-31T21:18:21.488Z,17.50
2022-07-31T21:20:53.516Z,17.15
2022-07-31T21:23:25.070Z,17.75
2022-07-31T21:25:53.678Z,17.35
2022-07-31T21:28:21.622Z,17.52
2022-07-31T21:30:49.206Z,17.67
2022-07-31T21:33:18.096Z,17.73
2022-07-31T21:35:46.562Z,17.70
2022-07-31T21:38:16.863Z,17.55
2022-07-31T21:40:45.720Z,17.33
2022-07-31T21:43:15.984Z,17.55
2022-07-31T21:45:55.157Z,17.42
2022-07-31T21:48:27.003Z,17.52
2022-07-31T21:50:54.822Z,18.00
2022-07-31T21:53:22.714Z,17.50
2022-07-31T21:55:50.215Z,18.27
2022-07-31T21:58:17.538Z,18.20
2022-07-31T22:00:44.932Z,18.60
2022-07-31T22:03:12.307Z,18.75
2022-07-31T22:05:57.769Z,18.00
2022-07-31T22:08:24.799Z,17.92
2022-07-31T22:10:52.568Z,18.08
2022-07-31T22:13:20.426Z,17.80
2022-07-31T22:15:56.972Z,17.60
2022-07-31T22:18:32.368Z,18.30
2022-07-31T22:21:00.968Z,18.85
2022-07-31T22:23:29.105Z,18.23
2022-07-31T22:25:56.977Z,18.00
2022-07-31T22:28:25.832Z,18.20
2022-07-31T22:30:53.644Z,18.20
2022-07-31T22:33:21.975Z,17.65
2022-07-31T22:35:59.276Z,17.90
2022-07-31T22:38:30.015Z,18.33
2022-07-31T22:40:58.786Z,18.40
2022-07-31T22:44:10.710Z,18.65
2022-07-31T22:46:13.594Z,18.20
2022-07-31T22:48:41.270Z,18.25
2022-07-31T22:51:08.938Z,17.98
2022-07-31T22:53:37.608Z,18.33
2022-07-31T22:56:04.859Z,18.23
2022-07-31T22:58:31.843Z,17.83
2022-07-31T23:00:58.827Z,17.45
2022-07-31T23:03:25.960Z,17.30
2022-07-31T23:06:29.810Z,17.67
2022-07-31T23:08:39.982Z,17.35
2022-07-31T23:11:07.022Z,18.00
2022-07-31T23:13:34.047Z,17.55
2022-07-31T23:16:01.109Z,17.58
2022-07-31T23:18:28.109Z,17.52
2022-07-31T23:20:55.123Z,17.75
2022-07-31T23:23:22.497Z,17.77
2022-07-31T23:25:49.520Z,18.23
2022-07-31T23:28:17.315Z,17.73
2022-07-31T23:30:44.429Z,17.58
2022-07-31T23:33:12.572Z,16.90
2022-07-31T23:35:39.589Z,17.50
2022-07-31T23:38:06.677Z,17.10
2022-07-31T23:40:33.768Z,17.33
2022-07-31T23:43:00.807Z,17.55
2022-07-31T23:45:27.779Z,17.83
2022-07-31T23:47:54.803Z,17.27
2022-07-31T23:50:26.093Z,17.67
2022-07-31T23:52:53.278Z,17.58
2022-07-31T23:55:20.607Z,17.80
2022-07-31T23:57:47.830Z,17.77
